Time;durP1;ratioP1;P1;durP2;ratioP2;P2;SDS_P1;SDS_P2;PMS_P1;PMS_P2;Temp;Humidity;BMP_temperature;BMP_pressure;BME280_temperature;BME280_humidity;BME280_pressure;Samples;Min_cycle;Max_cycle;Signal;HPM_P1;HPM_P2
2023/03/09 00:02:06;;;;;;;;;;;1.90;99.90;;;;;;4881827;29;19927;-63
2023/03/09 00:04:31;;;;;;;;;;;1.90;99.90;;;;;;4849595;29;19927;-64
2023/03/09 00:06:57;;;;;;;;;;;1.90;99.90;;;;;;4881480;29;19934;-64
2023/03/09 00:09:22;;;;;;;;;;;1.80;99.90;;;;;;4879964;29;20129;-64
2023/03/09 00:11:49;;;;;;;;;;;1.80;99.90;;;;;;4881379;29;20027;-64
2023/03/09 00:14:15;;;;;;;;;;;1.80;99.90;;;;;;4865068;29;19928;-64
2023/03/09 00:16:41;;;;;;;;;;;1.80;99.90;;;;;;4881077;29;19979;-64
2023/03/09 00:19:07;;;;;;;;;;;1.90;99.90;;;;;;4864958;29;19974;-64
2023/03/09 00:21:48;;;;;;;;;;;1.80;99.90;;;;;;4881212;29;19979;-64
2023/03/09 00:24:17;;;;;;;;;;;1.80;99.90;;;;;;4881391;29;20360;-65
2023/03/09 00:26:47;;;;;;;;;;;1.90;99.90;;;;;;4880838;29;19932;-65
2023/03/09 00:29:13;;;;;;;;;;;1.90;99.90;;;;;;4864791;29;19931;-64
2023/03/09 00:31:39;;;;;;;;;;;1.90;99.90;;;;;;4881086;29;19932;-64
2023/03/09 00:34:05;;;;;;;;;;;1.90;99.90;;;;;;4864629;29;19935;-64
2023/03/09 00:36:30;;;;;;;;;;;1.90;99.90;;;;;;4864355;29;19927;-63
2023/03/09 00:38:56;;;;;;;;;;;1.90;99.90;;;;;;4864394;29;19982;-64
2023/03/09 00:41:23;;;;;;;;;;;1.90;99.90;;;;;;4881004;29;19924;-64
2023/03/09 00:43:49;;;;;;;;;;;1.90;99.90;;;;;;4864269;29;20390;-63
2023/03/09 00:46:15;;;;;;;;;;;1.90;99.90;;;;;;4880901;29;19927;-64
2023/03/09 00:48:41;;;;;;;;;;;1.80;99.90;;;;;;4880056;29;19932;-64
2023/03/09 00:51:06;;;;;;;;;;;2.20;99.90;;;;;;4880692;29;19935;-64
2023/03/09 00:53:32;;;;;;;;;;;1.80;99.90;;;;;;4880278;29;19935;-64
2023/03/09 00:56:02;;;;;;;;;;;1.80;99.90;;;;;;4864151;29;19927;-63
2023/03/09 00:58:27;;;;;;;;;;;1.80;99.90;;;;;;4880447;29;20311;-63
2023/03/09 01:00:53;;;;;;;;;;;1.80;99.90;;;;;;4880290;29;19932;-63
2023/03/09 01:03:19;;;;;;;;;;;1.80;99.90;;;;;;4880487;29;19928;-64
2023/03/09 01:05:44;;;;;;;;;;;1.70;99.90;;;;;;4879781;29;20414;-64
2023/03/09 01:08:10;;;;;;;;;;;1.70;99.90;;;;;;4880169;29;19928;-63
2023/03/09 01:10:37;;;;;;;;;;;1.70;99.90;;;;;;4863416;29;19971;-64
2023/03/09 01:13:03;;;;;;;;;;;1.70;99.90;;;;;;4863493;29;19938;-64
2023/03/09 01:15:28;;;;;;;;;;;1.60;99.90;;;;;;4863679;29;19928;-64
2023/03/09 01:17:54;;;;;;;;;;;1.60;99.90;;;;;;4879981;29;19928;-63
2023/03/09 01:20:20;;;;;;;;;;;1.50;99.90;;;;;;4879800;29;20399;-63
2023/03/09 01:22:45;;;;;;;;;;;1.50;99.90;;;;;;4863084;29;20015;-64
2023/03/09 01:25:11;;;;;;;;;;;1.50;99.90;;;;;;4880044;29;19935;-64
2023/03/09 01:27:37;;;;;;;;;;;1.40;99.90;;;;;;4863234;29;20345;-64
2023/03/09 01:30:02;;;;;;;;;;;1.50;99.90;;;;;;4878975;29;19927;-64
2023/03/09 01:32:28;;;;;;;;;;;1.30;99.90;;;;;;4879853;29;19972;-64
2023/03/09 01:34:53;;;;;;;;;;;1.30;99.90;;;;;;4879448;29;20014;-64
2023/03/09 01:37:19;;;;;;;;;;;1.30;99.90;;;;;;4863490;29;19934;-64
2023/03/09 01:39:45;;;;;;;;;;;1.30;99.90;;;;;;4862968;29;19928;-64
2023/03/09 01:42:10;;;;;;;;;;;1.20;99.90;;;;;;4879730;29;19932;-63
2023/03/09 01:44:36;;;;;;;;;;;1.30;99.90;;;;;;4862669;29;19934;-64
2023/03/09 01:47:02;;;;;;;;;;;1.20;99.90;;;;;;4879458;29;19992;-64
2023/03/09 01:49:30;;;;;;;;;;;1.10;99.90;;;;;;4862671;29;19928;-64
2023/03/09 01:51:59;;;;;;;;;;;1.10;99.90;;;;;;4879359;29;19935;-64
2023/03/09 01:54:25;;;;;;;;;;;1.00;99.90;;;;;;4879489;29;20372;-63
2023/03/09 01:56:53;;;;;;;;;;;1.00;99.90;;;;;;4862699;29;20027;-63
2023/03/09 01:59:19;;;;;;;;;;;0.90;99.90;;;;;;4879521;29;19928;-64
2023/03/09 02:01:45;;;;;;;;;;;1.20;99.90;;;;;;4862471;29;19928;-64
2023/03/09 02:04:15;;;;;;;;;;;0.90;99.90;;;;;;4879324;29;19935;-64
2023/03/09 02:06:41;;;;;;;;;;;0.80;99.90;;;;;;4879014;29;20427;-64
2023/03/09 02:09:20;;;;;;;;;;;0.80;99.90;;;;;;4847289;29;19988;-64
2023/03/09 02:11:46;;;;;;;;;;;0.80;99.90;;;;;;4878939;29;20367;-64
2023/03/09 02:14:12;;;;;;;;;;;0.70;99.90;;;;;;4879076;29;19928;-64
2023/03/09 02:16:37;;;;;;;;;;;0.70;99.90;;;;;;4879121;29;19935;-63
2023/03/09 02:19:05;;;;;;;;;;;0.70;99.90;;;;;;4861815;29;20007;-64
2023/03/09 02:21:30;;;;;;;;;;;0.70;99.90;;;;;;4878672;29;19927;-63
2023/03/09 02:24:05;;;;;;;;;;;0.70;99.90;;;;;;4862092;29;20304;-63
2023/03/09 02:26:34;;;;;;;;;;;0.70;99.90;;;;;;4878877;29;20059;-64
2023/03/09 02:28:59;;;;;;;;;;;0.60;99.90;;;;;;4878564;29;20042;-63
2023/03/09 02:31:25;;;;;;;;;;;0.60;99.90;;;;;;4862288;29;20019;-64
2023/03/09 02:33:51;;;;;;;;;;;0.70;99.90;;;;;;4878263;29;19936;-64
2023/03/09 02:36:16;;;;;;;;;;;0.70;99.90;;;;;;4846920;29;19934;-63
2023/03/09 02:38:42;;;;;;;;;;;0.80;99.90;;;;;;4878423;29;20012;-64
2023/03/09 02:41:09;;;;;;;;;;;0.70;99.90;;;;;;4878787;29;20300;-63
2023/03/09 02:43:42;;;;;;;;;;;0.70;99.90;;;;;;4862413;29;20004;-64
2023/03/09 02:46:08;;;;;;;;;;;0.70;99.90;;;;;;4878594;29;19992;-64
2023/03/09 02:48:33;;;;;;;;;;;0.70;99.90;;;;;;4878395;29;19932;-64
2023/03/09 02:50:59;;;;;;;;;;;0.70;99.90;;;;;;4878001;29;19927;-64
2023/03/09 02:53:24;;;;;;;;;;;0.60;99.90;;;;;;4878767;29;20372;-63
2023/03/09 02:55:50;;;;;;;;;;;0.60;99.90;;;;;;4878105;29;20419;-63
2023/03/09 02:58:15;;;;;;;;;;;0.60;99.90;;;;;;4846928;29;19928;-64
2023/03/09 03:00:41;;;;;;;;;;;0.60;99.90;;;;;;4878640;29;19935;-64
2023/03/09 03:03:06;;;;;;;;;;;0.50;99.90;;;;;;4846443;29;20439;-64
2023/03/09 03:05:32;;;;;;;;;;;0.50;99.90;;;;;;4878582;29;19928;-64
2023/03/09 03:07:58;;;;;;;;;;;0.50;99.90;;;;;;4878098;29;19997;-64
2023/03/09 03:10:24;;;;;;;;;;;0.50;99.90;;;;;;4878156;29;19931;-64
2023/03/09 03:12:49;;;;;;;;;;;0.50;99.90;;;;;;4878281;29;19935;-64
2023/03/09 03:15:15;;;;;;;;;;;0.50;99.90;;;;;;4878505;29;19928;-65
2023/03/09 03:17:40;;;;;;;;;;;0.60;99.90;;;;;;4878621;29;19987;-64
2023/03/09 03:20:12;;;;;;;;;;;0.60;99.90;;;;;;4861652;29;20003;-62
2023/03/09 03:22:37;;;;;;;;;;;0.60;99.90;;;;;;4878457;29;20574;-64
2023/03/09 03:25:03;;;;;;;;;;;0.90;99.90;;;;;;4861250;29;19975;-64
2023/03/09 03:27:29;;;;;;;;;;;0.60;99.90;;;;;;4846256;29;19934;-64
2023/03/09 03:29:54;;;;;;;;;;;0.90;99.90;;;;;;4861272;29;20010;-63
2023/03/09 03:32:20;;;;;;;;;;;0.70;99.90;;;;;;4862075;29;19934;-64
2023/03/09 03:34:45;;;;;;;;;;;0.60;99.90;;;;;;4881917;29;20292;-63
2023/03/09 03:37:12;;;;;;;;;;;0.60;99.90;;;;;;4863750;29;19927;-63
2023/03/09 03:39:37;;;;;;;;;;;0.60;99.90;;;;;;4881427;29;19927;-63
2023/03/09 03:42:03;;;;;;;;;;;0.70;99.90;;;;;;4865063;29;19991;-64
2023/03/09 03:44:28;;;;;;;;;;;1.10;99.90;;;;;;4865159;29;19934;-63
2023/03/09 03:46:54;;;;;;;;;;;0.70;99.90;;;;;;4881759;29;19928;-64
2023/03/09 03:49:21;;;;;;;;;;;1.90;99.90;;;;;;4881774;29;19927;-62
2023/03/09 03:51:47;;;;;;;;;;;0.70;99.90;;;;;;4881378;29;19928;-64
2023/03/09 03:54:12;;;;;;;;;;;0.70;99.90;;;;;;4864823;29;19943;-64
2023/03/09 03:56:38;;;;;;;;;;;0.70;99.90;;;;;;4864975;29;20008;-63
2023/03/09 03:59:04;;;;;;;;;;;0.70;99.90;;;;;;4864811;29;20336;-64
2023/03/09 04:01:29;;;;;;;;;;;0.70;99.90;;;;;;4864924;29;19934;-64
2023/03/09 04:03:55;;;;;;;;;;;0.80;99.90;;;;;;4864539;29;19983;-63
2023/03/09 04:06:21;;;;;;;;;;;0.70;99.90;;;;;;4864868;29;19928;-63
2023/03/09 04:08:46;;;;;;;;;;;0.90;99.90;;;;;;4864909;29;19928;-63
2023/03/09 04:11:12;;;;;;;;;;;0.70;99.90;;;;;;4864642;29;20069;-65
2023/03/09 04:13:37;;;;;;;;;;;0.70;99.90;;;;;;4881461;29;19951;-63
2023/03/09 04:16:03;;;;;;;;;;;0.80;99.90;;;;;;4864268;29;20036;-64
2023/03/09 04:18:29;;;;;;;;;;;0.80;99.90;;;;;;4864766;29;19928;-63
2023/03/09 04:20:54;;;;;;;;;;;1.00;99.90;;;;;;4864502;29;19928;-64
2023/03/09 04:23:20;;;;;;;;;;;0.80;99.90;;;;;;4864788;29;20333;-64
2023/03/09 04:25:56;;;;;;;;;;;0.80;99.90;;;;;;4849403;29;19986;-64
2023/03/09 04:28:21;;;;;;;;;;;0.80;99.90;;;;;;4881265;29;19928;-65
2023/03/09 04:30:47;;;;;;;;;;;1.30;99.90;;;;;;4864730;29;19938;-64
2023/03/09 04:33:12;;;;;;;;;;;0.90;99.90;;;;;;4880980;29;20007;-63
2023/03/09 04:35:38;;;;;;;;;;;0.70;99.90;;;;;;4881239;29;19935;-64
2023/03/09 04:38:04;;;;;;;;;;;0.70;99.90;;;;;;4864069;29;19992;-64
2023/03/09 04:40:30;;;;;;;;;;;0.70;99.90;;;;;;4879716;29;19928;-64
2023/03/09 04:42:55;;;;;;;;;;;1.50;99.90;;;;;;4863826;29;19988;-63
2023/03/09 04:45:21;;;;;;;;;;;0.80;99.90;;;;;;4881075;29;20368;-64
2023/03/09 04:47:47;;;;;;;;;;;0.70;99.90;;;;;;4880905;29;20419;-64
2023/03/09 04:50:12;;;;;;;;;;;0.70;99.90;;;;;;4880499;29;19931;-63
2023/03/09 04:52:38;;;;;;;;;;;0.70;99.90;;;;;;4848706;29;20364;-64
2023/03/09 04:55:04;;;;;;;;;;;0.60;99.90;;;;;;4864141;29;19927;-63
2023/03/09 04:57:29;;;;;;;;;;;0.60;99.90;;;;;;4880707;29;19935;-63
2023/03/09 04:59:55;;;;;;;;;;;0.60;99.90;;;;;;4880450;29;19928;-63
2023/03/09 05:02:21;;;;;;;;;;;0.60;99.90;;;;;;4863636;29;20022;-63
2023/03/09 05:04:46;;;;;;;;;;;0.60;99.90;;;;;;4880667;29;19982;-64
2023/03/09 05:07:12;;;;;;;;;;;0.60;99.90;;;;;;4863348;29;19928;-64
2023/03/09 05:09:37;;;;;;;;;;;0.60;99.90;;;;;;4880450;29;20043;-64
2023/03/09 05:12:04;;;;;;;;;;;0.60;99.90;;;;;;4880264;29;19932;-63
2023/03/09 05:14:30;;;;;;;;;;;0.60;99.90;;;;;;4848780;29;19927;-64
2023/03/09 05:16:55;;;;;;;;;;;0.60;99.90;;;;;;4848464;29;20397;-64
2023/03/09 05:19:21;;;;;;;;;;;0.60;99.90;;;;;;4880119;29;20022;-63
2023/03/09 05:21:47;;;;;;;;;;;0.60;99.90;;;;;;4880193;29;19984;-64
2023/03/09 05:24:12;;;;;;;;;;;1.30;99.90;;;;;;4879796;29;20400;-65
2023/03/09 05:26:38;;;;;;;;;;;0.60;99.90;;;;;;4880060;29;19928;-64
2023/03/09 05:29:04;;;;;;;;;;;0.70;99.90;;;;;;4863340;29;19991;-64
2023/03/09 05:31:29;;;;;;;;;;;0.60;99.90;;;;;;4863664;29;19928;-64
2023/03/09 05:33:55;;;;;;;;;;;0.60;99.90;;;;;;4863280;29;19979;-63
2023/03/09 05:36:22;;;;;;;;;;;0.60;99.90;;;;;;4878708;29;20398;-63
2023/03/09 05:38:48;;;;;;;;;;;0.60;99.90;;;;;;4879945;29;20022;-63
2023/03/09 05:41:14;;;;;;;;;;;0.60;99.90;;;;;;4879683;29;19934;-64
2023/03/09 05:43:42;;;;;;;;;;;0.60;99.90;;;;;;4879767;29;19927;-64
2023/03/09 05:46:09;;;;;;;;;;;1.70;99.90;;;;;;4879328;29;19928;-64
2023/03/09 05:48:35;;;;;;;;;;;0.60;99.90;;;;;;4863480;29;20022;-64
2023/03/09 05:51:01;;;;;;;;;;;0.60;99.90;;;;;;4879463;29;19935;-67
2023/03/09 05:53:26;;;;;;;;;;;0.60;99.90;;;;;;4862716;29;19927;-64
2023/03/09 05:55:52;;;;;;;;;;;0.60;99.90;;;;;;4878371;29;19928;-64
2023/03/09 05:58:18;;;;;;;;;;;0.50;99.90;;;;;;4879088;29;20039;-63
2023/03/09 06:00:44;;;;;;;;;;;0.60;99.90;;;;;;4879250;29;19931;-64
2023/03/09 06:03:09;;;;;;;;;;;0.50;99.90;;;;;;4862556;29;19928;-63
2023/03/09 06:05:35;;;;;;;;;;;0.50;99.90;;;;;;4879138;29;19928;-63
2023/03/09 06:08:00;;;;;;;;;;;0.50;99.90;;;;;;4878925;29;20313;-64
2023/03/09 06:10:26;;;;;;;;;;;0.60;99.90;;;;;;4878538;29;19928;-63
2023/03/09 06:12:51;;;;;;;;;;;1.00;99.90;;;;;;4878989;29;19928;-64
2023/03/09 06:15:17;;;;;;;;;;;0.50;99.90;;;;;;4862053;29;19935;-64
2023/03/09 06:17:43;;;;;;;;;;;0.50;99.90;;;;;;4879005;29;19939;-64
2023/03/09 06:20:09;;;;;;;;;;;0.50;99.90;;;;;;4879161;29;20155;-64
2023/03/09 06:22:34;;;;;;;;;;;0.60;99.90;;;;;;4877753;29;20383;-64
2023/03/09 06:25:00;;;;;;;;;;;0.60;99.90;;;;;;4878114;29;19978;-64
2023/03/09 06:27:25;;;;;;;;;;;0.60;99.90;;;;;;4878961;29;19935;-64
2023/03/09 06:29:54;;;;;;;;;;;0.60;99.90;;;;;;4847428;29;20295;-64
2023/03/09 06:32:20;;;;;;;;;;;0.60;99.90;;;;;;4862190;29;20022;-63
2023/03/09 06:34:46;;;;;;;;;;;0.70;99.90;;;;;;4879024;29;20044;-64
2023/03/09 06:37:11;;;;;;;;;;;0.70;99.90;;;;;;4878826;29;19928;-63
2023/03/09 06:39:37;;;;;;;;;;;0.70;99.90;;;;;;4878903;29;19928;-63
2023/03/09 06:42:03;;;;;;;;;;;0.70;99.90;;;;;;4846973;29;19939;-64
2023/03/09 06:44:28;;;;;;;;;;;0.70;99.90;;;;;;4878410;29;20295;-63
2023/03/09 06:46:54;;;;;;;;;;;0.70;99.90;;;;;;4878728;29;19928;-63
2023/03/09 06:49:19;;;;;;;;;;;0.70;99.90;;;;;;4861939;29;19928;-63
2023/03/09 06:51:45;;;;;;;;;;;0.70;99.90;;;;;;4878724;29;20022;-64
2023/03/09 06:54:11;;;;;;;;;;;0.80;99.90;;;;;;4878651;29;19928;-63
2023/03/09 06:56:36;;;;;;;;;;;0.80;99.90;;;;;;4878022;29;19931;-65
2023/03/09 06:59:02;;;;;;;;;;;0.80;99.90;;;;;;4862228;29;20265;-65
2023/03/09 07:01:27;;;;;;;;;;;0.80;99.90;;;;;;4878172;29;19928;-63
2023/03/09 07:03:53;;;;;;;;;;;0.90;99.90;;;;;;4861255;29;19931;-64
2023/03/09 07:06:18;;;;;;;;;;;1.00;99.90;;;;;;4877798;29;20319;-63
2023/03/09 07:08:44;;;;;;;;;;;1.00;99.90;;;;;;4878364;29;19935;-64
2023/03/09 07:11:10;;;;;;;;;;;1.10;99.90;;;;;;4878577;29;19934;-64
2023/03/09 07:13:35;;;;;;;;;;;1.20;99.90;;;;;;4861626;29;20364;-64
2023/03/09 07:16:01;;;;;;;;;;;1.20;99.90;;;;;;4877443;29;19935;-64
2023/03/09 07:18:27;;;;;;;;;;;1.40;99.90;;;;;;4878030;29;20032;-64
2023/03/09 07:20:53;;;;;;;;;;;1.40;99.90;;;;;;4878237;29;19993;-64
2023/03/09 07:23:18;;;;;;;;;;;1.60;99.90;;;;;;4861752;29;19979;-63
2023/03/09 07:25:44;;;;;;;;;;;1.60;99.90;;;;;;4877993;29;19967;-64
2023/03/09 07:28:09;;;;;;;;;;;2.70;99.90;;;;;;4861934;29;19928;-63
2023/03/09 07:30:36;;;;;;;;;;;2.20;99.90;;;;;;4877999;29;20288;-64
2023/03/09 07:33:02;;;;;;;;;;;2.80;99.90;;;;;;4878231;29;19928;-64
2023/03/09 07:35:27;;;;;;;;;;;3.40;99.90;;;;;;4846240;29;19928;-64
2023/03/09 07:37:53;;;;;;;;;;;3.50;99.90;;;;;;4862039;29;19931;-63
2023/03/09 07:40:19;;;;;;;;;;;3.50;99.90;;;;;;4878138;29;19928;-64
2023/03/09 07:42:49;;;;;;;;;;;3.70;99.90;;;;;;4861345;29;19928;-63
2023/03/09 07:45:15;;;;;;;;;;;4.10;99.90;;;;;;4878073;29;19928;-64
2023/03/09 07:47:41;;;;;;;;;;;4.50;99.90;;;;;;4877407;29;20368;-63
2023/03/09 07:50:07;;;;;;;;;;;5.00;99.90;;;;;;4878244;29;19928;-63
2023/03/09 07:52:33;;;;;;;;;;;5.50;99.90;;;;;;4877391;29;19931;-64
2023/03/09 07:55:00;;;;;;;;;;;6.20;99.90;;;;;;4877998;29;19928;-64
2023/03/09 07:57:35;;;;;;;;;;;6.90;99.90;;;;;;4877728;29;19987;-64
2023/03/09 08:00:00;;;;;;;;;;;7.20;99.90;;;;;;4876873;29;19935;-64
2023/03/09 08:02:26;;;;;;;;;;;7.20;99.90;;;;;;4877666;29;19927;-64
2023/03/09 08:04:52;;;;;;;;;;;7.30;99.90;;;;;;4877798;29;20420;-64
2023/03/09 08:07:18;;;;;;;;;;;7.10;99.90;;;;;;4878011;29;19928;-64
2023/03/09 08:09:44;;;;;;;;;;;6.90;99.90;;;;;;4877604;29;19939;-64
2023/03/09 08:12:10;;;;;;;;;;;6.40;99.90;;;;;;4877918;29;19934;-64
2023/03/09 08:14:35;;;;;;;;;;;6.20;99.90;;;;;;4877667;29;19938;-64
2023/03/09 08:17:02;;;;;;;;;;;6.00;99.90;;;;;;4877708;29;19928;-64
2023/03/09 08:19:28;;;;;;;;;;;6.20;99.90;;;;;;4880471;29;20273;-64
2023/03/09 08:21:53;;;;;;;;;;;6.20;99.90;;;;;;4881070;29;19938;-65
2023/03/09 08:24:19;;;;;;;;;;;6.10;99.90;;;;;;4881198;29;19975;-64
2023/03/09 08:26:45;;;;;;;;;;;6.00;99.90;;;;;;4880910;29;20567;-64
2023/03/09 08:29:10;;;;;;;;;;;5.80;99.90;;;;;;4881067;29;20014;-64
2023/03/09 08:31:36;;;;;;;;;;;5.70;99.90;;;;;;4880629;29;19927;-64
2023/03/09 08:34:03;;;;;;;;;;;5.70;99.90;;;;;;4864460;29;19927;-64
2023/03/09 08:36:28;;;;;;;;;;;6.00;99.90;;;;;;4864036;29;19928;-64
2023/03/09 08:38:54;;;;;;;;;;;6.40;99.90;;;;;;4880649;29;20410;-64
2023/03/09 08:41:19;;;;;;;;;;;6.50;99.90;;;;;;4848984;29;19928;-65
2023/03/09 08:43:46;;;;;;;;;;;6.80;99.90;;;;;;4864118;29;19928;-63
2023/03/09 08:46:12;;;;;;;;;;;7.10;99.90;;;;;;4880920;29;19935;-65
2023/03/09 08:48:38;;;;;;;;;;;7.40;99.90;;;;;;4880379;29;19934;-64
2023/03/09 08:51:08;;;;;;;;;;;7.60;99.90;;;;;;4880652;29;19927;-63
2023/03/09 08:53:34;;;;;;;;;;;7.70;99.90;;;;;;4880636;29;19928;-64
2023/03/09 08:56:04;;;;;;;;;;;7.80;99.90;;;;;;4849135;29;20329;-64
2023/03/09 08:58:30;;;;;;;;;;;7.80;99.90;;;;;;4880612;29;19935;-63
2023/03/09 09:00:55;;;;;;;;;;;8.00;99.90;;;;;;4880649;29;19928;-65
2023/03/09 09:03:21;;;;;;;;;;;8.40;99.90;;;;;;4864089;29;19928;-65
2023/03/09 09:05:46;;;;;;;;;;;8.70;99.90;;;;;;4863767;29;19927;-65
2023/03/09 09:08:12;;;;;;;;;;;9.00;99.90;;;;;;4863674;29;20431;-65
2023/03/09 09:10:39;;;;;;;;;;;9.50;99.90;;;;;;4863552;29;19934;-63
2023/03/09 09:13:05;;;;;;;;;;;9.80;99.90;;;;;;4864236;29;19928;-65
2023/03/09 09:15:31;;;;;;;;;;;9.90;99.90;;;;;;4880414;29;19935;-62
2023/03/09 09:17:56;;;;;;;;;;;9.80;99.90;;;;;;4880431;29;20018;-64
2023/03/09 09:20:22;;;;;;;;;;;9.60;99.90;;;;;;4880036;29;20269;-64
2023/03/09 09:22:48;;;;;;;;;;;9.10;99.90;;;;;;4880064;29;19992;-65
2023/03/09 09:25:14;;;;;;;;;;;8.60;99.90;;;;;;4863583;29;20344;-63
2023/03/09 09:27:40;;;;;;;;;;;8.00;99.90;;;;;;4863626;29;20022;-63
2023/03/09 09:30:06;;;;;;;;;;;7.70;99.90;;;;;;4863418;29;20442;-64
2023/03/09 09:32:31;;;;;;;;;;;7.30;99.90;;;;;;4863381;29;19928;-63
2023/03/09 09:34:57;;;;;;;;;;;6.90;99.90;;;;;;4847965;29;19934;-63
2023/03/09 09:37:23;;;;;;;;;;;6.60;99.90;;;;;;4879425;29;20014;-64
2023/03/09 09:39:48;;;;;;;;;;;6.40;99.90;;;;;;4879017;29;19979;-65
2023/03/09 09:42:14;;;;;;;;;;;6.20;99.90;;;;;;4862622;29;19950;-63
2023/03/09 09:44:45;;;;;;;;;;;6.10;99.90;;;;;;4878747;29;19927;-64
2023/03/09 09:47:17;;;;;;;;;;;6.00;99.90;;;;;;4847140;29;20014;-63
2023/03/09 09:49:44;;;;;;;;;;;5.90;99.90;;;;;;4878966;29;20030;-63
2023/03/09 09:52:18;;;;;;;;;;;5.80;99.90;;;;;;4878252;29;20022;-63
2023/03/09 09:54:53;;;;;;;;;;;5.80;99.90;;;;;;4877183;29;20355;-63
2023/03/09 09:57:36;;;;;;;;;;;5.90;99.90;;;;;;4878879;29;19928;-64
2023/03/09 10:00:05;;;;;;;;;;;6.10;99.90;;;;;;4846559;29;19928;-63
2023/03/09 10:02:33;;;;;;;;;;;6.20;99.90;;;;;;4878540;29;19984;-64
2023/03/09 10:05:15;;;;;;;;;;;6.30;99.90;;;;;;4878331;29;20419;-63
2023/03/09 10:07:41;;;;;;;;;;;6.40;99.90;;;;;;4862796;29;19966;-63
2023/03/09 10:10:11;;;;;;;;;;;6.50;99.90;;;;;;4863035;29;20340;-64
2023/03/09 10:12:36;;;;;;;;;;;6.50;99.90;;;;;;4862517;29;20400;-64
2023/03/09 10:15:13;;;;;;;;;;;6.30;99.90;;;;;;4862391;29;19952;-64
2023/03/09 10:17:45;;;;;;;;;;;6.10;99.90;;;;;;4879329;29;19928;-65
2023/03/09 10:20:21;;;;;;;;;;;6.00;99.90;;;;;;4861968;29;20269;-66
2023/03/09 10:22:49;;;;;;;;;;;6.00;99.90;;;;;;4861175;29;19934;-64
2023/03/09 10:25:18;;;;;;;;;;;5.90;99.90;;;;;;4878741;29;20383;-63
2023/03/09 10:27:45;;;;;;;;;;;5.80;99.90;;;;;;4878610;29;19939;-64
2023/03/09 10:30:14;;;;;;;;;;;5.80;99.90;;;;;;4879033;29;19932;-64
2023/03/09 10:32:39;;;;;;;;;;;5.70;99.90;;;;;;4879093;29;19984;-63
2023/03/09 10:35:23;;;;;;;;;;;5.60;99.90;;;;;;4861829;29;19928;-64
2023/03/09 10:37:50;;;;;;;;;;;5.50;99.90;;;;;;4861869;29;19978;-64
2023/03/09 10:40:17;;;;;;;;;;;5.40;99.90;;;;;;4878294;29;19928;-64
2023/03/09 10:42:42;;;;;;;;;;;5.50;99.90;;;;;;4879112;29;19997;-65
2023/03/09 10:45:28;;;;;;;;;;;5.50;99.90;;;;;;4861752;29;20392;-64
2023/03/09 10:48:02;;;;;;;;;;;5.60;99.90;;;;;;4878365;29;19931;-64
2023/03/09 10:50:29;;;;;;;;;;;5.70;99.90;;;;;;4878841;29;19935;-64
2023/03/09 10:52:55;;;;;;;;;;;5.70;99.90;;;;;;4845558;29;19950;-64
2023/03/09 10:55:27;;;;;;;;;;;5.80;99.90;;;;;;4861989;29;20423;-64
2023/03/09 10:57:57;;;;;;;;;;;5.80;99.90;;;;;;4861832;29;19935;-64
2023/03/09 11:00:23;;;;;;;;;;;5.70;99.90;;;;;;4878551;29;19928;-65
2023/03/09 11:02:59;;;;;;;;;;;5.70;99.90;;;;;;4861508;29;19979;-65
2023/03/09 11:05:29;;;;;;;;;;;5.50;99.90;;;;;;4878219;29;20434;-65
2023/03/09 11:07:58;;;;;;;;;;;5.40;99.90;;;;;;4878299;29;19975;-64
2023/03/09 11:10:26;;;;;;;;;;;5.40;99.90;;;;;;4878732;29;20023;-65
2023/03/09 11:12:52;;;;;;;;;;;5.40;99.90;;;;;;4846291;29;19927;-65
2023/03/09 11:15:18;;;;;;;;;;;5.50;99.90;;;;;;4878201;29;19986;-65
2023/03/09 11:17:45;;;;;;;;;;;5.60;99.90;;;;;;4862026;29;19970;-65
2023/03/09 11:20:20;;;;;;;;;;;5.70;99.90;;;;;;4878185;29;20014;-64
2023/03/09 11:23:07;;;;;;;;;;;5.70;99.90;;;;;;4846686;29;20003;-65
2023/03/09 11:25:50;;;;;;;;;;;5.80;99.90;;;;;;4861698;29;19932;-66
2023/03/09 11:28:19;;;;;;;;;;;5.70;99.90;;;;;;4861861;29;19927;-65
2023/03/09 11:30:47;;;;;;;;;;;5.80;99.90;;;;;;4878475;29;19928;-66
2023/03/09 11:33:14;;;;;;;;;;;5.80;99.90;;;;;;4878082;29;19924;-65
2023/03/09 11:35:40;;;;;;;;;;;5.90;99.90;;;;;;4846500;29;19928;-66
2023/03/09 11:38:10;;;;;;;;;;;5.80;99.90;;;;;;4861074;29;19938;-66
2023/03/09 11:40:38;;;;;;;;;;;5.80;99.90;;;;;;4877892;29;20387;-65
2023/03/09 11:43:33;;;;;;;;;;;5.80;99.90;;;;;;4861375;29;19928;-65
2023/03/09 11:46:00;;;;;;;;;;;5.70;99.90;;;;;;4868953;29;19991;-65
2023/03/09 11:48:29;;;;;;;;;;;5.60;99.90;;;;;;4861693;29;19928;-65
2023/03/09 11:51:01;;;;;;;;;;;5.60;99.90;;;;;;4877099;29;19951;-65
2023/03/09 11:53:46;;;;;;;;;;;5.50;99.90;;;;;;4879782;29;19928;-65
2023/03/09 11:56:30;;;;;;;;;;;5.40;99.90;;;;;;4881489;29;19928;-64
2023/03/09 11:58:58;;;;;;;;;;;5.40;99.90;;;;;;4864660;29;19935;-66
2023/03/09 12:01:36;;;;;;;;;;;5.50;99.90;;;;;;4849679;29;19928;-65
2023/03/09 12:04:03;;;;;;;;;;;5.60;99.90;;;;;;4881338;29;19928;-66
2023/03/09 12:06:29;;;;;;;;;;;5.70;99.90;;;;;;4864803;29;19928;-66
2023/03/09 12:08:56;;;;;;;;;;;5.60;99.90;;;;;;4881206;29;19928;-65
2023/03/09 12:11:26;;;;;;;;;;;5.70;99.90;;;;;;4865033;29;20383;-65
2023/03/09 12:13:55;;;;;;;;;;;5.70;99.90;;;;;;4865069;29;19928;-64
2023/03/09 12:16:23;;;;;;;;;;;5.70;99.90;;;;;;4864690;29;19935;-65
2023/03/09 12:18:57;;;;;;;;;;;5.80;99.90;;;;;;4864779;29;19927;-64
2023/03/09 12:21:50;;;;;;;;;;;5.80;99.90;;;;;;4864770;29;19990;-65
2023/03/09 12:24:21;;;;;;;;;;;5.80;99.90;;;;;;4862190;29;19927;-65
2023/03/09 12:27:04;;;;;;;;;;;5.80;99.90;;;;;;4881060;29;19975;-64
2023/03/09 12:29:32;;;;;;;;;;;5.70;99.90;;;;;;4880891;29;19935;-65
2023/03/09 12:32:16;;;;;;;;;;;5.70;99.90;;;;;;4881087;29;20019;-65
2023/03/09 12:34:42;;;;;;;;;;;5.60;99.90;;;;;;4864388;29;19932;-65
2023/03/09 12:37:26;;;;;;;;;;;5.70;99.90;;;;;;4848780;29;19950;-64
2023/03/09 12:39:59;;;;;;;;;;;5.70;99.90;;;;;;4864232;29;20273;-65
2023/03/09 12:42:38;;;;;;;;;;;5.70;99.90;;;;;;4880750;29;19935;-65
2023/03/09 12:45:09;;;;;;;;;;;5.70;99.90;;;;;;4863953;29;20010;-64
2023/03/09 12:47:37;;;;;;;;;;;5.70;99.90;;;;;;4880759;29;19928;-65
2023/03/09 12:50:21;;;;;;;;;;;5.70;99.90;;;;;;4880417;29;20300;-65
2023/03/09 12:52:53;;;;;;;;;;;5.60;99.90;;;;;;4880702;29;19928;-65
2023/03/09 12:55:20;;;;;;;;;;;5.60;99.90;;;;;;4863686;29;19927;-64
2023/03/09 12:57:47;;;;;;;;;;;5.60;99.90;;;;;;4880970;29;19927;-64
2023/03/09 13:00:20;;;;;;;;;;;5.60;99.90;;;;;;4880592;29;19982;-64
2023/03/09 13:02:57;;;;;;;;;;;5.50;99.90;;;;;;4864024;29;20022;-63
2023/03/09 13:05:29;;;;;;;;;;;5.40;99.90;;;;;;4878713;29;19928;-65
2023/03/09 13:07:57;;;;;;;;;;;5.40;99.90;;;;;;4880447;29;19986;-64
2023/03/09 13:10:31;;;;;;;;;;;5.40;99.90;;;;;;4879948;29;20059;-64
2023/03/09 13:13:16;;;;;;;;;;;5.40;99.90;;;;;;4880502;29;20129;-64
2023/03/09 13:15:42;;;;;;;;;;;5.30;99.90;;;;;;4863546;29;19931;-64
2023/03/09 13:18:12;;;;;;;;;;;5.40;99.90;;;;;;4879863;29;19934;-64
2023/03/09 13:20:41;;;;;;;;;;;5.40;99.90;;;;;;4880118;29;20296;-65
2023/03/09 13:23:13;;;;;;;;;;;5.50;99.90;;;;;;4863406;29;19928;-64
2023/03/09 13:25:43;;;;;;;;;;;5.50;99.90;;;;;;4880087;29;19927;-64
2023/03/09 13:28:35;;;;;;;;;;;5.40;99.90;;;;;;4879772;29;19982;-64
2023/03/09 13:31:03;;;;;;;;;;;5.40;99.90;;;;;;4861574;29;19935;-64
2023/03/09 13:33:30;;;;;;;;;;;5.40;99.90;;;;;;4863271;29;20027;-64
2023/03/09 13:35:58;;;;;;;;;;;5.30;99.90;;;;;;4863551;29;19932;-64
2023/03/09 13:38:31;;;;;;;;;;;5.30;99.90;;;;;;4879529;29;19932;-64
2023/03/09 13:40:58;;;;;;;;;;;5.30;99.90;;;;;;4863467;29;19928;-64
2023/03/09 13:43:25;;;;;;;;;;;5.20;99.90;;;;;;4879303;29;19928;-63
2023/03/09 13:46:06;;;;;;;;;;;5.10;99.90;;;;;;4879716;29;19935;-64
2023/03/09 13:48:34;;;;;;;;;;;5.00;99.90;;;;;;4862739;29;19935;-63
2023/03/09 13:51:00;;;;;;;;;;;5.10;99.90;;;;;;4878974;29;19960;-64
2023/03/09 13:53:26;;;;;;;;;;;5.00;99.90;;;;;;4879068;29;19928;-64
2023/03/09 13:56:05;;;;;;;;;;;5.10;99.90;;;;;;4863127;29;19927;-63
2023/03/09 13:58:38;;;;;;;;;;;5.10;99.90;;;;;;4846888;29;20011;-64
2023/03/09 14:01:05;;;;;;;;;;;5.00;99.90;;;;;;4879374;29;19991;-65
2023/03/09 14:03:33;;;;;;;;;;;5.00;99.90;;;;;;4879048;29;19930;-65
2023/03/09 14:06:03;;;;;;;;;;;5.10;99.90;;;;;;4879523;29;20015;-63
2023/03/09 14:08:32;;;;;;;;;;;5.00;99.90;;;;;;4862442;29;19935;-64
2023/03/09 14:11:02;;;;;;;;;;;5.00;99.90;;;;;;4879381;29;19934;-64
2023/03/09 14:13:28;;;;;;;;;;;5.00;99.90;;;;;;4878950;29;19935;-64
2023/03/09 14:16:13;;;;;;;;;;;4.90;99.90;;;;;;4862212;29;19928;-64
2023/03/09 14:18:46;;;;;;;;;;;4.90;99.90;;;;;;4878988;29;20444;-65
2023/03/09 14:21:37;;;;;;;;;;;4.90;99.90;;;;;;4862680;29;20342;-66
2023/03/09 14:24:21;;;;;;;;;;;4.80;99.90;;;;;;4877013;29;20019;-64
2023/03/09 14:26:46;;;;;;;;;;;4.80;99.90;;;;;;4861993;29;20388;-64
2023/03/09 14:29:21;;;;;;;;;;;4.80;99.90;;;;;;4862468;29;19931;-64
2023/03/09 14:31:47;;;;;;;;;;;4.80;99.90;;;;;;4878987;29;20014;-64
2023/03/09 14:34:16;;;;;;;;;;;4.70;99.90;;;;;;4847159;29;20014;-63
2023/03/09 14:36:48;;;;;;;;;;;4.70;99.90;;;;;;4862264;29;20090;-65